Arena, Wisconsin
Current Conditions -  °F | °C
As of 12:56 AM on Monday 24 Nov 2014 (Local Time) from KLNR Reporting Station
Moderate Fog Moderate Fog  
Wind Chill:   Ceiling: 400
Heat Index:   Visibility: 0.5mi
Dew Point:   Wind: 6mph
Humidity: 86%   Direction: 260°W
Pressure: 29.11"   Gusts: NA
Location:  43.17°N, 89.91°W
Report Text: KLNR 240656Z AUTO 26005KT 1/2SM FG VV004 09/07 A2911 RMK AO2 SLP852 T00890067
Loading
Personal Weather Stations






























Interactive Weather Map New forecast layout! Learn more

10-Day Weather Forecast

Advertisements
Track Severe Weather on mobile